sensor_id;sensor_type;location;lat;lon;timestamp;temperature;humidity
57108;DHT22;42987;52.916;6.542;2024-03-08T00:00:07;2.30;99.90
57108;DHT22;42987;52.916;6.542;2024-03-08T00:02:40;2.30;99.90
57108;DHT22;42987;52.916;6.542;2024-03-08T00:05:08;2.20;99.90
57108;DHT22;42987;52.916;6.542;2024-03-08T00:07:37;2.20;99.90
57108;DHT22;42987;52.916;6.542;2024-03-08T00:10:07;2.20;99.90
57108;DHT22;42987;52.916;6.542;2024-03-08T00:12:43;2.20;99.90
57108;DHT22;42987;52.916;6.542;2024-03-08T00:15:13;2.10;99.90
57108;DHT22;42987;52.916;6.542;2024-03-08T00:17:40;2.20;99.90
57108;DHT22;42987;52.916;6.542;2024-03-08T00:20:07;2.10;99.90
57108;DHT22;42987;52.916;6.542;2024-03-08T00:22:39;2.10;99.90
57108;DHT22;42987;52.916;6.542;2024-03-08T00:25:08;2.00;99.90
57108;DHT22;42987;52.916;6.542;2024-03-08T00:27:37;2.00;99.90
57108;DHT22;42987;52.916;6.542;2024-03-08T00:30:04;2.00;99.90
57108;DHT22;42987;52.916;6.542;2024-03-08T00:32:31;1.90;99.90
57108;DHT22;42987;52.916;6.542;2024-03-08T00:35:00;1.90;99.90
57108;DHT22;42987;52.916;6.542;2024-03-08T00:37:26;1.90;99.90
57108;DHT22;42987;52.916;6.542;2024-03-08T00:39:52;1.90;99.90
57108;DHT22;42987;52.916;6.542;2024-03-08T00:42:19;1.90;99.90
57108;DHT22;42987;52.916;6.542;2024-03-08T00:44:46;1.80;99.90
57108;DHT22;42987;52.916;6.542;2024-03-08T00:47:12;1.80;99.90
57108;DHT22;42987;52.916;6.542;2024-03-08T00:49:38;1.80;99.90
57108;DHT22;42987;52.916;6.542;2024-03-08T00:52:07;1.90;99.90
57108;DHT22;42987;52.916;6.542;2024-03-08T00:54:34;1.90;99.90
57108;DHT22;42987;52.916;6.542;2024-03-08T00:57:02;1.80;99.90
57108;DHT22;42987;52.916;6.542;2024-03-08T00:59:32;1.80;99.90
57108;DHT22;42987;52.916;6.542;2024-03-08T01:02:04;1.90;99.90
57108;DHT22;42987;52.916;6.542;2024-03-08T01:04:34;1.90;99.90
57108;DHT22;42987;52.916;6.542;2024-03-08T01:07:01;1.90;99.90
57108;DHT22;42987;52.916;6.542;2024-03-08T01:09:27;1.90;99.90
57108;DHT22;42987;52.916;6.542;2024-03-08T01:11:54;1.90;99.90
57108;DHT22;42987;52.916;6.542;2024-03-08T01:14:21;1.90;99.90
57108;DHT22;42987;52.916;6.542;2024-03-08T01:16:51;1.90;99.90
57108;DHT22;42987;52.916;6.542;2024-03-08T01:19:16;1.90;99.90
57108;DHT22;42987;52.916;6.542;2024-03-08T01:21:43;1.80;99.90
57108;DHT22;42987;52.916;6.542;2024-03-08T01:24:09;1.80;99.90
57108;DHT22;42987;52.916;6.542;2024-03-08T01:26:35;1.80;99.90
57108;DHT22;42987;52.916;6.542;2024-03-08T01:29:04;1.80;99.90
57108;DHT22;42987;52.916;6.542;2024-03-08T01:31:30;1.70;99.90
57108;DHT22;42987;52.916;6.542;2024-03-08T01:33:57;1.70;99.90
57108;DHT22;42987;52.916;6.542;2024-03-08T01:36:23;1.70;99.90
57108;DHT22;42987;52.916;6.542;2024-03-08T01:38:50;1.70;99.90
57108;DHT22;42987;52.916;6.542;2024-03-08T01:41:16;1.70;99.90
57108;DHT22;42987;52.916;6.542;2024-03-08T01:43:44;1.70;99.90
57108;DHT22;42987;52.916;6.542;2024-03-08T01:46:12;1.60;99.90
57108;DHT22;42987;52.916;6.542;2024-03-08T01:48:41;1.60;99.90
57108;DHT22;42987;52.916;6.542;2024-03-08T01:51:07;1.60;99.90
57108;DHT22;42987;52.916;6.542;2024-03-08T01:53:34;1.60;99.90
57108;DHT22;42987;52.916;6.542;2024-03-08T01:56:02;1.60;99.90
57108;DHT22;42987;52.916;6.542;2024-03-08T01:58:29;1.60;99.90
57108;DHT22;42987;52.916;6.542;2024-03-08T02:00:58;1.60;99.90
57108;DHT22;42987;52.916;6.542;2024-03-08T02:03:25;1.50;99.90
57108;DHT22;42987;52.916;6.542;2024-03-08T02:05:50;1.50;99.90
57108;DHT22;42987;52.916;6.542;2024-03-08T02:08:18;1.50;99.90
57108;DHT22;42987;52.916;6.542;2024-03-08T02:10:45;1.50;99.90
57108;DHT22;42987;52.916;6.542;2024-03-08T02:13:11;1.50;99.90
57108;DHT22;42987;52.916;6.542;2024-03-08T02:16:03;1.60;99.90
57108;DHT22;42987;52.916;6.542;2024-03-08T02:18:30;1.60;99.90
57108;DHT22;42987;52.916;6.542;2024-03-08T02:21:04;1.50;99.90
57108;DHT22;42987;52.916;6.542;2024-03-08T02:23:30;1.50;99.90
57108;DHT22;42987;52.916;6.542;2024-03-08T02:26:06;1.50;99.90
57108;DHT22;42987;52.916;6.542;2024-03-08T02:28:33;1.50;99.90
57108;DHT22;42987;52.916;6.542;2024-03-08T02:30:59;1.50;99.90
57108;DHT22;42987;52.916;6.542;2024-03-08T02:33:27;1.40;99.90
57108;DHT22;42987;52.916;6.542;2024-03-08T02:35:54;1.40;99.90
57108;DHT22;42987;52.916;6.542;2024-03-08T02:38:22;1.50;99.90
57108;DHT22;42987;52.916;6.542;2024-03-08T02:40:49;1.50;99.90
57108;DHT22;42987;52.916;6.542;2024-03-08T02:43:16;1.50;99.90
57108;DHT22;42987;52.916;6.542;2024-03-08T02:45:43;1.50;99.90
57108;DHT22;42987;52.916;6.542;2024-03-08T02:48:10;1.50;99.90
57108;DHT22;42987;52.916;6.542;2024-03-08T02:50:36;1.50;99.90
57108;DHT22;42987;52.916;6.542;2024-03-08T02:53:03;1.40;99.90
57108;DHT22;42987;52.916;6.542;2024-03-08T02:55:29;1.40;99.90
57108;DHT22;42987;52.916;6.542;2024-03-08T02:57:55;1.40;99.90
57108;DHT22;42987;52.916;6.542;2024-03-08T03:00:22;1.30;99.90
57108;DHT22;42987;52.916;6.542;2024-03-08T03:02:50;1.40;99.90
57108;DHT22;42987;52.916;6.542;2024-03-08T03:05:20;1.40;99.90
57108;DHT22;42987;52.916;6.542;2024-03-08T03:07:46;1.40;99.90
57108;DHT22;42987;52.916;6.542;2024-03-08T03:10:12;1.30;99.90
57108;DHT22;42987;52.916;6.542;2024-03-08T03:12:38;1.30;99.90
57108;DHT22;42987;52.916;6.542;2024-03-08T03:15:04;1.30;99.90
57108;DHT22;42987;52.916;6.542;2024-03-08T03:17:32;1.30;99.90
57108;DHT22;42987;52.916;6.542;2024-03-08T03:19:58;1.30;99.90
57108;DHT22;42987;52.916;6.542;2024-03-08T03:22:23;1.30;99.90
57108;DHT22;42987;52.916;6.542;2024-03-08T03:24:51;1.30;99.90
57108;DHT22;42987;52.916;6.542;2024-03-08T03:27:17;1.30;99.90
57108;DHT22;42987;52.916;6.542;2024-03-08T03:29:43;1.30;99.90
57108;DHT22;42987;52.916;6.542;2024-03-08T03:32:13;1.20;99.90
57108;DHT22;42987;52.916;6.542;2024-03-08T03:34:40;1.30;99.90
57108;DHT22;42987;52.916;6.542;2024-03-08T03:37:06;1.20;99.90
57108;DHT22;42987;52.916;6.542;2024-03-08T03:39:38;1.30;99.90
57108;DHT22;42987;52.916;6.542;2024-03-08T03:42:17;1.30;99.90
57108;DHT22;42987;52.916;6.542;2024-03-08T03:44:47;1.20;99.90
57108;DHT22;42987;52.916;6.542;2024-03-08T03:47:14;1.20;99.90
57108;DHT22;42987;52.916;6.542;2024-03-08T03:49:43;1.20;99.90
57108;DHT22;42987;52.916;6.542;2024-03-08T03:52:09;1.10;99.90
57108;DHT22;42987;52.916;6.542;2024-03-08T03:54:35;1.10;99.90
57108;DHT22;42987;52.916;6.542;2024-03-08T03:57:04;1.10;99.90
57108;DHT22;42987;52.916;6.542;2024-03-08T03:59:30;1.10;99.90
57108;DHT22;42987;52.916;6.542;2024-03-08T04:01:57;1.10;99.90
57108;DHT22;42987;52.916;6.542;2024-03-08T04:04:23;1.10;99.90
57108;DHT22;42987;52.916;6.542;2024-03-08T04:06:50;1.10;99.90
57108;DHT22;42987;52.916;6.542;2024-03-08T04:09:17;1.00;99.90
57108;DHT22;42987;52.916;6.542;2024-03-08T04:11:45;1.00;99.90
57108;DHT22;42987;52.916;6.542;2024-03-08T04:14:11;1.00;99.90
57108;DHT22;42987;52.916;6.542;2024-03-08T04:16:37;1.00;99.90
57108;DHT22;42987;52.916;6.542;2024-03-08T04:19:03;1.00;99.90
57108;DHT22;42987;52.916;6.542;2024-03-08T04:21:32;1.00;99.90
57108;DHT22;42987;52.916;6.542;2024-03-08T04:23:58;1.00;99.90
57108;DHT22;42987;52.916;6.542;2024-03-08T04:26:24;1.00;99.90
57108;DHT22;42987;52.916;6.542;2024-03-08T04:28:51;1.00;99.90
57108;DHT22;42987;52.916;6.542;2024-03-08T04:31:17;1.00;99.90
57108;DHT22;42987;52.916;6.542;2024-03-08T04:33:43;1.00;99.90
57108;DHT22;42987;52.916;6.542;2024-03-08T04:36:10;1.00;99.90
57108;DHT22;42987;52.916;6.542;2024-03-08T04:38:39;1.00;99.90
57108;DHT22;42987;52.916;6.542;2024-03-08T04:41:06;1.00;99.90
57108;DHT22;42987;52.916;6.542;2024-03-08T04:43:33;1.00;99.90
57108;DHT22;42987;52.916;6.542;2024-03-08T04:45:59;0.90;99.90
57108;DHT22;42987;52.916;6.542;2024-03-08T04:48:25;1.00;99.90
57108;DHT22;42987;52.916;6.542;2024-03-08T04:50:53;0.90;99.90
57108;DHT22;42987;52.916;6.542;2024-03-08T04:53:20;1.00;99.90
57108;DHT22;42987;52.916;6.542;2024-03-08T04:55:45;0.90;99.90
57108;DHT22;42987;52.916;6.542;2024-03-08T04:58:11;0.90;99.90
57108;DHT22;42987;52.916;6.542;2024-03-08T05:00:37;1.00;99.90
57108;DHT22;42987;52.916;6.542;2024-03-08T05:03:03;0.80;99.90
57108;DHT22;42987;52.916;6.542;2024-03-08T05:05:30;0.80;99.90
57108;DHT22;42987;52.916;6.542;2024-03-08T05:07:56;0.90;99.90
57108;DHT22;42987;52.916;6.542;2024-03-08T05:10:22;0.80;99.90
57108;DHT22;42987;52.916;6.542;2024-03-08T05:12:48;0.80;99.90
57108;DHT22;42987;52.916;6.542;2024-03-08T05:15:14;0.80;99.90
57108;DHT22;42987;52.916;6.542;2024-03-08T05:17:40;0.70;99.90
57108;DHT22;42987;52.916;6.542;2024-03-08T05:20:07;0.70;99.90
57108;DHT22;42987;52.916;6.542;2024-03-08T05:22:34;0.70;99.90
57108;DHT22;42987;52.916;6.542;2024-03-08T05:24:59;0.70;99.90
57108;DHT22;42987;52.916;6.542;2024-03-08T05:27:26;0.70;99.90
57108;DHT22;42987;52.916;6.542;2024-03-08T05:29:53;0.70;99.90
57108;DHT22;42987;52.916;6.542;2024-03-08T05:32:19;0.70;99.90
57108;DHT22;42987;52.916;6.542;2024-03-08T05:34:45;0.60;99.90
57108;DHT22;42987;52.916;6.542;2024-03-08T05:37:11;0.70;99.90
57108;DHT22;42987;52.916;6.542;2024-03-08T05:39:37;0.70;99.90
57108;DHT22;42987;52.916;6.542;2024-03-08T05:42:03;0.70;99.90
57108;DHT22;42987;52.916;6.542;2024-03-08T05:44:29;0.70;99.90
57108;DHT22;42987;52.916;6.542;2024-03-08T05:46:56;0.70;99.90
57108;DHT22;42987;52.916;6.542;2024-03-08T05:49:22;0.70;99.90
57108;DHT22;42987;52.916;6.542;2024-03-08T05:51:48;0.70;99.90
57108;DHT22;42987;52.916;6.542;2024-03-08T05:54:13;0.70;99.90
57108;DHT22;42987;52.916;6.542;2024-03-08T05:56:40;0.70;99.90
57108;DHT22;42987;52.916;6.542;2024-03-08T05:59:10;0.70;99.90
57108;DHT22;42987;52.916;6.542;2024-03-08T06:01:36;0.70;99.90
57108;DHT22;42987;52.916;6.542;2024-03-08T06:04:03;0.70;99.90
57108;DHT22;42987;52.916;6.542;2024-03-08T06:06:29;0.80;99.90
57108;DHT22;42987;52.916;6.542;2024-03-08T06:08:55;0.80;99.90
57108;DHT22;42987;52.916;6.542;2024-03-08T06:11:25;0.80;99.90
57108;DHT22;42987;52.916;6.542;2024-03-08T06:13:55;0.80;99.90
57108;DHT22;42987;52.916;6.542;2024-03-08T06:16:26;0.80;99.90
57108;DHT22;42987;52.916;6.542;2024-03-08T06:18:58;0.80;99.90
57108;DHT22;42987;52.916;6.542;2024-03-08T06:21:24;0.70;99.90
57108;DHT22;42987;52.916;6.542;2024-03-08T06:23:54;0.80;99.90
57108;DHT22;42987;52.916;6.542;2024-03-08T06:26:24;0.80;99.90
57108;DHT22;42987;52.916;6.542;2024-03-08T06:28:50;0.80;99.90
57108;DHT22;42987;52.916;6.542;2024-03-08T06:31:16;0.80;99.90
57108;DHT22;42987;52.916;6.542;2024-03-08T06:33:42;0.80;99.90
57108;DHT22;42987;52.916;6.542;2024-03-08T06:36:09;0.80;99.90
57108;DHT22;42987;52.916;6.542;2024-03-08T06:38:35;0.80;99.90
57108;DHT22;42987;52.916;6.542;2024-03-08T06:41:00;0.80;99.90
57108;DHT22;42987;52.916;6.542;2024-03-08T06:43:29;0.90;99.90
57108;DHT22;42987;52.916;6.542;2024-03-08T06:46:00;0.90;99.90
57108;DHT22;42987;52.916;6.542;2024-03-08T06:48:25;0.90;99.90
57108;DHT22;42987;52.916;6.542;2024-03-08T06:50:51;1.00;99.90
57108;DHT22;42987;52.916;6.542;2024-03-08T06:53:17;1.00;99.90
57108;DHT22;42987;52.916;6.542;2024-03-08T06:55:44;1.00;99.90
57108;DHT22;42987;52.916;6.542;2024-03-08T06:58:10;1.10;99.90
57108;DHT22;42987;52.916;6.542;2024-03-08T07:00:39;1.10;99.90
57108;DHT22;42987;52.916;6.542;2024-03-08T07:03:08;1.30;99.90
57108;DHT22;42987;52.916;6.542;2024-03-08T07:05:37;1.30;99.90
57108;DHT22;42987;52.916;6.542;2024-03-08T07:08:05;1.30;99.90
57108;DHT22;42987;52.916;6.542;2024-03-08T07:10:32;1.40;99.90
57108;DHT22;42987;52.916;6.542;2024-03-08T07:12:57;1.40;99.90
57108;DHT22;42987;52.916;6.542;2024-03-08T07:15:24;1.50;99.90
57108;DHT22;42987;52.916;6.542;2024-03-08T07:17:49;1.50;99.90
57108;DHT22;42987;52.916;6.542;2024-03-08T07:20:18;1.50;99.90
57108;DHT22;42987;52.916;6.542;2024-03-08T07:22:45;1.60;99.90
57108;DHT22;42987;52.916;6.542;2024-03-08T07:25:13;1.60;99.90
57108;DHT22;42987;52.916;6.542;2024-03-08T07:27:54;1.70;99.90
57108;DHT22;42987;52.916;6.542;2024-03-08T07:30:24;1.70;99.90
57108;DHT22;42987;52.916;6.542;2024-03-08T07:33:08;1.70;99.90
57108;DHT22;42987;52.916;6.542;2024-03-08T07:35:38;1.80;99.90
57108;DHT22;42987;52.916;6.542;2024-03-08T07:38:07;1.80;99.90
57108;DHT22;42987;52.916;6.542;2024-03-08T07:40:41;1.90;99.90
57108;DHT22;42987;52.916;6.542;2024-03-08T07:43:10;2.00;99.90
57108;DHT22;42987;52.916;6.542;2024-03-08T07:45:40;2.00;99.90
57108;DHT22;42987;52.916;6.542;2024-03-08T07:48:06;2.10;99.90
57108;DHT22;42987;52.916;6.542;2024-03-08T07:50:38;2.20;99.90
57108;DHT22;42987;52.916;6.542;2024-03-08T07:53:05;2.20;99.90
57108;DHT22;42987;52.916;6.542;2024-03-08T07:55:36;2.30;99.90
57108;DHT22;42987;52.916;6.542;2024-03-08T07:58:03;2.40;99.90
57108;DHT22;42987;52.916;6.542;2024-03-08T08:00:29;2.50;99.90
57108;DHT22;42987;52.916;6.542;2024-03-08T08:02:57;2.60;99.90
57108;DHT22;42987;52.916;6.542;2024-03-08T08:05:23;2.60;99.90
57108;DHT22;42987;52.916;6.542;2024-03-08T08:07:49;2.70;99.90
57108;DHT22;42987;52.916;6.542;2024-03-08T08:10:16;2.70;99.90
57108;DHT22;42987;52.916;6.542;2024-03-08T08:12:51;2.90;99.90
57108;DHT22;42987;52.916;6.542;2024-03-08T08:15:17;3.00;99.90
57108;DHT22;42987;52.916;6.542;2024-03-08T08:17:46;3.10;99.90
57108;DHT22;42987;52.916;6.542;2024-03-08T08:20:13;3.20;99.90
57108;DHT22;42987;52.916;6.542;2024-03-08T08:22:42;3.30;99.90
57108;DHT22;42987;52.916;6.542;2024-03-08T08:25:11;3.40;99.90
57108;DHT22;42987;52.916;6.542;2024-03-08T08:27:46;3.40;99.90
57108;DHT22;42987;52.916;6.542;2024-03-08T08:30:12;3.50;99.90
57108;DHT22;42987;52.916;6.542;2024-03-08T08:32:39;3.60;99.90
57108;DHT22;42987;52.916;6.542;2024-03-08T08:35:06;3.70;99.90
57108;DHT22;42987;52.916;6.542;2024-03-08T08:37:32;3.70;99.90
57108;DHT22;42987;52.916;6.542;2024-03-08T08:39:59;3.80;99.90
57108;DHT22;42987;52.916;6.542;2024-03-08T08:42:31;3.80;99.90
57108;DHT22;42987;52.916;6.542;2024-03-08T08:44:57;3.80;99.90
57108;DHT22;42987;52.916;6.542;2024-03-08T08:47:23;3.90;99.90
57108;DHT22;42987;52.916;6.542;2024-03-08T08:49:49;4.00;99.90
57108;DHT22;42987;52.916;6.542;2024-03-08T08:52:16;4.00;99.90
57108;DHT22;42987;52.916;6.542;2024-03-08T08:54:43;4.10;99.90
57108;DHT22;42987;52.916;6.542;2024-03-08T08:57:10;4.10;99.90
57108;DHT22;42987;52.916;6.542;2024-03-08T08:59:36;4.10;99.90
57108;DHT22;42987;52.916;6.542;2024-03-08T09:02:06;4.10;99.90
57108;DHT22;42987;52.916;6.542;2024-03-08T09:04:32;4.20;99.90
57108;DHT22;42987;52.916;6.542;2024-03-08T09:06:58;4.20;99.90
57108;DHT22;42987;52.916;6.542;2024-03-08T09:09:24;4.20;99.90
57108;DHT22;42987;52.916;6.542;2024-03-08T09:11:51;4.20;99.90
57108;DHT22;42987;52.916;6.542;2024-03-08T09:14:19;4.30;99.90
57108;DHT22;42987;52.916;6.542;2024-03-08T09:16:48;4.20;99.90
57108;DHT22;42987;52.916;6.542;2024-03-08T09:19:14;4.40;99.90
57108;DHT22;42987;52.916;6.542;2024-03-08T09:21:40;4.40;99.90
57108;DHT22;42987;52.916;6.542;2024-03-08T09:24:06;4.50;99.90
57108;DHT22;42987;52.916;6.542;2024-03-08T09:26:32;4.60;99.90
57108;DHT22;42987;52.916;6.542;2024-03-08T09:28:59;4.60;99.90
57108;DHT22;42987;52.916;6.542;2024-03-08T09:31:25;4.60;99.90
57108;DHT22;42987;52.916;6.542;2024-03-08T09:33:51;4.60;99.90
57108;DHT22;42987;52.916;6.542;2024-03-08T09:36:17;4.60;99.90
57108;DHT22;42987;52.916;6.542;2024-03-08T09:38:43;4.60;99.90
57108;DHT22;42987;52.916;6.542;2024-03-08T09:41:09;4.70;99.90
57108;DHT22;42987;52.916;6.542;2024-03-08T09:43:38;4.80;99.90
57108;DHT22;42987;52.916;6.542;2024-03-08T09:46:04;4.80;99.90
57108;DHT22;42987;52.916;6.542;2024-03-08T09:48:33;4.90;99.90
57108;DHT22;42987;52.916;6.542;2024-03-08T09:51:00;4.90;99.90
57108;DHT22;42987;52.916;6.542;2024-03-08T09:53:26;4.90;99.90
57108;DHT22;42987;52.916;6.542;2024-03-08T09:55:52;5.00;99.90
57108;DHT22;42987;52.916;6.542;2024-03-08T09:58:18;5.00;99.90
57108;DHT22;42987;52.916;6.542;2024-03-08T10:00:53;5.00;99.90
57108;DHT22;42987;52.916;6.542;2024-03-08T10:03:23;5.10;99.90
57108;DHT22;42987;52.916;6.542;2024-03-08T10:05:49;5.20;99.90
57108;DHT22;42987;52.916;6.542;2024-03-08T10:08:15;5.30;99.90
57108;DHT22;42987;52.916;6.542;2024-03-08T10:10:41;5.30;99.90
57108;DHT22;42987;52.916;6.542;2024-03-08T10:13:08;5.30;99.90
57108;DHT22;42987;52.916;6.542;2024-03-08T10:15:39;5.40;99.90
57108;DHT22;42987;52.916;6.542;2024-03-08T10:18:06;5.50;99.90
57108;DHT22;42987;52.916;6.542;2024-03-08T10:20:32;5.50;99.90
57108;DHT22;42987;52.916;6.542;2024-03-08T10:23:05;5.50;99.90
57108;DHT22;42987;52.916;6.542;2024-03-08T10:25:32;5.60;99.90
57108;DHT22;42987;52.916;6.542;2024-03-08T10:27:58;5.60;99.90
57108;DHT22;42987;52.916;6.542;2024-03-08T10:30:24;5.70;99.90
57108;DHT22;42987;52.916;6.542;2024-03-08T10:32:50;5.80;99.90
57108;DHT22;42987;52.916;6.542;2024-03-08T10:35:17;5.80;99.90
57108;DHT22;42987;52.916;6.542;2024-03-08T10:37:50;5.80;99.90
57108;DHT22;42987;52.916;6.542;2024-03-08T10:40:24;5.90;99.90
57108;DHT22;42987;52.916;6.542;2024-03-08T10:42:54;5.90;99.90
57108;DHT22;42987;52.916;6.542;2024-03-08T10:45:39;6.00;99.90
57108;DHT22;42987;52.916;6.542;2024-03-08T10:50:46;6.10;99.90
57108;DHT22;42987;52.916;6.542;2024-03-08T10:53:14;6.10;99.90
57108;DHT22;42987;52.916;6.542;2024-03-08T10:55:41;6.30;99.90
57108;DHT22;42987;52.916;6.542;2024-03-08T10:58:08;6.40;99.90
57108;DHT22;42987;52.916;6.542;2024-03-08T11:00:36;6.40;99.90
57108;DHT22;42987;52.916;6.542;2024-03-08T11:03:03;6.40;99.90
57108;DHT22;42987;52.916;6.542;2024-03-08T11:05:40;6.50;99.90
57108;DHT22;42987;52.916;6.542;2024-03-08T11:08:18;6.50;99.90
57108;DHT22;42987;52.916;6.542;2024-03-08T11:10:57;6.50;99.90
57108;DHT22;42987;52.916;6.542;2024-03-08T11:13:36;6.50;99.90
57108;DHT22;42987;52.916;6.542;2024-03-08T11:16:07;6.60;99.90
57108;DHT22;42987;52.916;6.542;2024-03-08T11:18:35;6.50;99.90
57108;DHT22;42987;52.916;6.542;2024-03-08T11:21:03;6.60;99.90
57108;DHT22;42987;52.916;6.542;2024-03-08T11:23:33;6.70;99.90
57108;DHT22;42987;52.916;6.542;2024-03-08T11:26:00;6.90;99.90
57108;DHT22;42987;52.916;6.542;2024-03-08T11:28:31;6.90;99.90
57108;DHT22;42987;52.916;6.542;2024-03-08T11:33:30;7.00;99.90
57108;DHT22;42987;52.916;6.542;2024-03-08T11:36:11;7.10;99.90
57108;DHT22;42987;52.916;6.542;2024-03-08T11:38:45;7.10;99.90
57108;DHT22;42987;52.916;6.542;2024-03-08T11:41:17;7.20;99.90
57108;DHT22;42987;52.916;6.542;2024-03-08T11:43:49;7.20;99.90
57108;DHT22;42987;52.916;6.542;2024-03-08T11:46:16;7.20;99.90
57108;DHT22;42987;52.916;6.542;2024-03-08T11:48:43;7.30;99.90
57108;DHT22;42987;52.916;6.542;2024-03-08T11:51:13;7.30;99.90
57108;DHT22;42987;52.916;6.542;2024-03-08T11:53:44;7.40;99.90
57108;DHT22;42987;52.916;6.542;2024-03-08T11:56:11;7.40;99.90
57108;DHT22;42987;52.916;6.542;2024-03-08T11:58:38;7.50;99.90
57108;DHT22;42987;52.916;6.542;2024-03-08T12:01:09;7.60;99.90
57108;DHT22;42987;52.916;6.542;2024-03-08T12:03:39;7.80;99.90
57108;DHT22;42987;52.916;6.542;2024-03-08T12:06:05;7.90;99.90
57108;DHT22;42987;52.916;6.542;2024-03-08T12:08:31;7.90;99.90
57108;DHT22;42987;52.916;6.542;2024-03-08T12:10:58;8.00;99.90
57108;DHT22;42987;52.916;6.542;2024-03-08T12:13:27;8.10;99.90
57108;DHT22;42987;52.916;6.542;2024-03-08T12:15:58;8.10;99.90
57108;DHT22;42987;52.916;6.542;2024-03-08T12:18:25;8.00;99.90
57108;DHT22;42987;52.916;6.542;2024-03-08T12:20:52;8.10;99.90
57108;DHT22;42987;52.916;6.542;2024-03-08T12:23:17;8.10;99.90
57108;DHT22;42987;52.916;6.542;2024-03-08T12:25:44;8.30;99.90
57108;DHT22;42987;52.916;6.542;2024-03-08T12:28:11;8.40;99.90
57108;DHT22;42987;52.916;6.542;2024-03-08T12:30:48;8.40;99.90
57108;DHT22;42987;52.916;6.542;2024-03-08T12:33:15;8.60;99.90
57108;DHT22;42987;52.916;6.542;2024-03-08T12:35:41;8.60;99.90
57108;DHT22;42987;52.916;6.542;2024-03-08T12:38:07;8.70;99.90
57108;DHT22;42987;52.916;6.542;2024-03-08T12:40:34;8.70;99.90
57108;DHT22;42987;52.916;6.542;2024-03-08T12:43:01;8.80;99.90
57108;DHT22;42987;52.916;6.542;2024-03-08T12:45:28;8.70;99.90
57108;DHT22;42987;52.916;6.542;2024-03-08T12:47:55;8.70;99.90
57108;DHT22;42987;52.916;6.542;2024-03-08T12:50:22;8.80;99.90
57108;DHT22;42987;52.916;6.542;2024-03-08T12:52:48;8.90;99.90
57108;DHT22;42987;52.916;6.542;2024-03-08T12:55:15;8.80;99.90
57108;DHT22;42987;52.916;6.542;2024-03-08T12:57:43;8.90;99.90
57108;DHT22;42987;52.916;6.542;2024-03-08T13:00:09;8.90;99.90
57108;DHT22;42987;52.916;6.542;2024-03-08T13:02:41;8.80;99.90
57108;DHT22;42987;52.916;6.542;2024-03-08T13:05:07;9.00;99.90
57108;DHT22;42987;52.916;6.542;2024-03-08T13:07:35;9.10;99.90
57108;DHT22;42987;52.916;6.542;2024-03-08T13:10:03;9.10;99.90
57108;DHT22;42987;52.916;6.542;2024-03-08T13:12:30;9.10;99.90
57108;DHT22;42987;52.916;6.542;2024-03-08T13:14:56;9.20;99.90
57108;DHT22;42987;52.916;6.542;2024-03-08T13:17:22;9.30;99.90
57108;DHT22;42987;52.916;6.542;2024-03-08T13:19:48;9.30;99.90
57108;DHT22;42987;52.916;6.542;2024-03-08T13:22:14;9.30;99.90
57108;DHT22;42987;52.916;6.542;2024-03-08T13:24:45;9.30;99.90
57108;DHT22;42987;52.916;6.542;2024-03-08T13:27:11;9.40;99.90
57108;DHT22;42987;52.916;6.542;2024-03-08T13:29:48;9.30;99.40
57108;DHT22;42987;52.916;6.542;2024-03-08T13:32:15;9.30;99.60
57108;DHT22;42987;52.916;6.542;2024-03-08T13:34:44;9.40;99.60
57108;DHT22;42987;52.916;6.542;2024-03-08T13:37:10;9.40;97.90
57108;DHT22;42987;52.916;6.542;2024-03-08T13:39:37;9.30;98.30
57108;DHT22;42987;52.916;6.542;2024-03-08T13:42:14;9.40;99.90
57108;DHT22;42987;52.916;6.542;2024-03-08T13:44:48;9.50;99.60
57108;DHT22;42987;52.916;6.542;2024-03-08T13:47:17;9.40;99.30
57108;DHT22;42987;52.916;6.542;2024-03-08T13:49:44;9.40;99.50
57108;DHT22;42987;52.916;6.542;2024-03-08T13:52:10;9.40;99.90
57108;DHT22;42987;52.916;6.542;2024-03-08T13:54:37;9.40;99.40
57108;DHT22;42987;52.916;6.542;2024-03-08T13:57:04;9.50;99.00
57108;DHT22;42987;52.916;6.542;2024-03-08T13:59:39;9.50;98.90
57108;DHT22;42987;52.916;6.542;2024-03-08T14:02:06;9.50;98.30
57108;DHT22;42987;52.916;6.542;2024-03-08T14:04:32;9.50;97.80
57108;DHT22;42987;52.916;6.542;2024-03-08T14:06:57;9.40;97.60
57108;DHT22;42987;52.916;6.542;2024-03-08T14:09:29;9.40;97.60
57108;DHT22;42987;52.916;6.542;2024-03-08T14:11:55;9.50;97.80
57108;DHT22;42987;52.916;6.542;2024-03-08T14:14:22;9.40;97.30
57108;DHT22;42987;52.916;6.542;2024-03-08T14:16:51;9.30;97.50
57108;DHT22;42987;52.916;6.542;2024-03-08T14:19:19;9.30;98.10
57108;DHT22;42987;52.916;6.542;2024-03-08T14:21:45;9.30;99.30
57108;DHT22;42987;52.916;6.542;2024-03-08T14:24:11;9.30;97.80
57108;DHT22;42987;52.916;6.542;2024-03-08T14:26:36;9.30;96.90
57108;DHT22;42987;52.916;6.542;2024-03-08T14:29:04;9.30;96.80
57108;DHT22;42987;52.916;6.542;2024-03-08T14:31:31;9.20;96.30
57108;DHT22;42987;52.916;6.542;2024-03-08T14:33:57;9.20;96.80
57108;DHT22;42987;52.916;6.542;2024-03-08T14:36:24;9.20;97.10
57108;DHT22;42987;52.916;6.542;2024-03-08T14:38:52;9.30;97.20
57108;DHT22;42987;52.916;6.542;2024-03-08T14:41:18;9.30;96.50
57108;DHT22;42987;52.916;6.542;2024-03-08T14:43:44;9.30;96.60
57108;DHT22;42987;52.916;6.542;2024-03-08T14:46:18;9.30;97.20
57108;DHT22;42987;52.916;6.542;2024-03-08T14:48:49;9.20;97.10
57108;DHT22;42987;52.916;6.542;2024-03-08T14:51:21;9.30;96.40
57108;DHT22;42987;52.916;6.542;2024-03-08T14:53:52;9.20;96.80
57108;DHT22;42987;52.916;6.542;2024-03-08T14:56:20;9.20;97.10
57108;DHT22;42987;52.916;6.542;2024-03-08T14:58:46;9.20;95.80
57108;DHT22;42987;52.916;6.542;2024-03-08T15:01:18;9.20;95.90
57108;DHT22;42987;52.916;6.542;2024-03-08T15:03:53;9.10;96.80
57108;DHT22;42987;52.916;6.542;2024-03-08T15:06:18;9.10;97.20
57108;DHT22;42987;52.916;6.542;2024-03-08T15:08:47;9.00;97.10
57108;DHT22;42987;52.916;6.542;2024-03-08T15:11:13;9.10;98.10
57108;DHT22;42987;52.916;6.542;2024-03-08T15:13:48;9.10;96.70
57108;DHT22;42987;52.916;6.542;2024-03-08T15:16:17;9.00;97.50
57108;DHT22;42987;52.916;6.542;2024-03-08T15:18:44;9.00;97.60
57108;DHT22;42987;52.916;6.542;2024-03-08T15:21:14;8.90;97.80
57108;DHT22;42987;52.916;6.542;2024-03-08T15:23:51;8.90;99.00
57108;DHT22;42987;52.916;6.542;2024-03-08T15:26:18;8.90;97.90
57108;DHT22;42987;52.916;6.542;2024-03-08T15:28:44;8.90;97.90
57108;DHT22;42987;52.916;6.542;2024-03-08T15:31:11;8.90;98.00
57108;DHT22;42987;52.916;6.542;2024-03-08T15:33:39;8.80;99.00
57108;DHT22;42987;52.916;6.542;2024-03-08T15:36:19;8.80;99.00
57108;DHT22;42987;52.916;6.542;2024-03-08T15:38:46;8.80;98.30
57108;DHT22;42987;52.916;6.542;2024-03-08T15:41:13;8.70;98.50
57108;DHT22;42987;52.916;6.542;2024-03-08T15:43:40;8.70;99.00
57108;DHT22;42987;52.916;6.542;2024-03-08T15:46:07;8.60;99.30
57108;DHT22;42987;52.916;6.542;2024-03-08T15:48:37;8.60;99.90
57108;DHT22;42987;52.916;6.542;2024-03-08T15:51:04;8.60;99.90
57108;DHT22;42987;52.916;6.542;2024-03-08T15:53:33;8.60;99.90